Nearby METAR Reports

 

CYUL - Montreal/Dorval, Quebec, Canada
Distance from station: ENE 6km
Updated: 07/19/2018 20:00 EDT
Partly cloudy
Partly cloudy
 Wind from SW
Wind: SW 17 km/h
Temperature: 26°C
Dew Point: 13°C
Humidity: 45%
Barometer: 1016.6 hPa
Clouds: Partly cloudy
Visibility: 48 km
Cloud details: Partly cloudy 7620 m
2018/07/20 00:00 CYUL 200000Z 22009KT 30SM SCT250 26/13 A3002 RMK CI3 SLP169 DENSITY ALT 1300FT
CWVQ - Ste Anne De Bell, Quebec, Canada
Distance from station: WSW 10km
Updated: 07/19/2018 20:00 EDT

 Wind from SW
Wind: SW 11 km/h
Temperature: 25°C
Dew Point: 12°C
Humidity: 44%
2018/07/20 00:00 CWVQ 200000Z AUTO 23006KT 25/12 RMK AO1 SLP169 T02530117 53002
 
CWTA - Mc Tavish (aut), Quebec, Canada
Distance from station: ENE 18km
Updated: 07/19/2018 20:00 EDT

 Wind from SW
Wind: SW 2 km/h
Temperature: 25°C
Dew Point: 12°C
Humidity: 44%
2018/07/20 00:00 CWTA 200000Z AUTO 23001KT 25/12 RMK AO1 SLP170 T02480118 53001
CYMX - Montreal/Mirabel, Quebec, Canada
Distance from station: NW 29km
Updated: 07/19/2018 20:00 EDT
Partly cloudy
Partly cloudy
 Wind from SSW
Wind: SSW 7 km/h
Temperature: 23°C
Dew Point: 15°C
Humidity: 61%
Barometer: 1016.9 hPa
Clouds: Partly cloudy
Visibility: 72 km
Cloud details: Partly cloudy 7620 m
2018/07/20 00:00 CYMX 200000Z 20004KT 45SM SCT250 23/15 A3003 RMK CI3 SLP173 DENSITY ALT 1200FT
 
CYHU - Saint Hubert Arp, Quebec, Canada
Distance from station: ENE 31km
Updated: 07/19/2018 20:00 EDT
Clear
Clear
 Wind from SW
Wind: SW 13 km/h
Temperature: 25°C
Dew Point: 12°C
Humidity: 44%
Barometer: 1016.6 hPa
Clouds: Clear
Visibility: 14 km
2018/07/20 00:00 CYHU 200000Z AUTO 22007KT 9SM CLR 25/12 A3002 RMK SLP168 DENSITY ALT 1100FT
CWIT - St Clothilde (a, Quebec, Canada
Distance from station: SSE 33km
Updated: 07/19/2018 20:00 EDT

 Wind from SSW
Wind: SSW 2 km/h
Temperature: 24°C
Dew Point: 15°C
Humidity: 57%
2018/07/20 00:00 CWIT 200000Z AUTO 21001KT 24/15 RMK AO1 SLP173 T02370148 53002
 
CWIZ - L'acadie, Quebec, Canada
Distance from station: ESE 41km
Updated: 07/19/2018 20:00 EDT

 Wind from S
Wind: S 11 km/h
Temperature: 22°C
Dew Point: 14°C
Humidity: 61%
2018/07/20 00:00 CWIZ 200000Z AUTO 17006KT 22/14 RMK AO1 T02240136
CWHM - Varennes, Quebec, Canada
Distance from station: NE 45km
Updated: 10/25/2016 10:00 EDT
NOT Current

 Wind from W
Wind: W 19 km/h, Gust: 28 km/h
Temperature: 4°C
Wind Chill: 0°C
Dew Point: -2°C
Humidity: 65%
2016/10/25 14:00 CWHM 251400Z AUTO 28010G15KT 04/M02 RMK AO1 PK WND 28018/1302 T00391017
 
CWEW - L'assomption, Quebec, Canada
Distance from station: NE 50km
Updated: 07/19/2018 20:00 EDT

 Wind from SW
Wind: SW 6 km/h
Temperature: 24°C
Dew Point: 14°C
Humidity: 54%
2018/07/20 00:00 CWEW 200000Z AUTO 23003KT 24/14 RMK AO1 SLP172 T02440135 53001
CWBZ - St Anicet, Quebec, Canada
Distance from station: SW 52km
Updated: 07/19/2018 20:00 EDT

 Wind from SW
Wind: SW 4 km/h
Temperature: 25°C
Dew Point: 14°C
Humidity: 51%
2018/07/20 00:00 CWBZ 200000Z AUTO 22002KT 25/14 RMK AO1 SLP167 T02460136 55000
 
KFSO - Highgate, Vermont, USA
Distance from station: SE 79km
Updated: 07/19/2018 20:55 EDT
Clear
Clear
 Wind from calm
Wind: Calm
Temperature: 19°C
Dew Point: 15°C
Humidity: 78%
Barometer: 1018.3 hPa
Clouds: Clear
Visibility: 16 km
2018/07/20 00:55 KFSO 200055Z AUTO 00000KT 10SM CLR 19/15 A3007 RMK AO2 T01850152
CMGB - Granby, Quebec, Canada
Distance from station: E 81km
Updated: 07/19/2018 20:45 EDT

 Wind from S
Wind: S 2 km/h
Temperature: 20°C
Dew Point: 14°C
Humidity: 69%
2018/07/20 00:45 CMGB 200045Z AUTO 19001KT 20/14 RMK AO1 SLP173 T02010139 53001
 
CWJT - St Jovite (autob, Quebec, Canada
Distance from station: NW 88km
Updated: 07/19/2018 20:00 EDT

 Wind from calm
Wind: Calm
Temperature: 21°C
Dew Point: 13°C
Humidity: 60%
2018/07/20 00:00 CWJT 200000Z AUTO 00000KT 21/13 RMK AO1 SLP170 T02140132 53001
CWFQ - Frelighsburg, Quebec, Canada
Distance from station: ESE 90km
Updated: 07/19/2018 20:00 EDT

 Wind from calm
Wind: Calm
Temperature: 21°C
Dew Point: 11°C
Humidity: 53%
2018/07/20 00:00 CWFQ 200000Z AUTO 00000KT 21/11 RMK AO1 SLP180 T02070108 53003
 
KPBG - Plattsburgh Afb, New York, USA
Distance from station: SSE 93km
Updated: 07/19/2018 20:53 EDT
Clear
Clear
 Wind from calm
Wind: Calm
Temperature: 19°C
Dew Point: 13°C
Humidity: 68%
Barometer: 1017.9 hPa
Clouds: Clear
Visibility: 16 km
2018/07/20 00:53 KPBG 200053Z AUTO 00000KT 10SM CLR 19/13 A3006 RMK AO2 SLP178 T01940128
KMSS - Massena, New York, USA
Distance from station: SW 100km
Updated: 07/19/2018 20:53 EDT
Clear
Clear
 Wind from SW
Wind: SW 7 km/h
Temperature: 22°C
Dew Point: 13°C
Humidity: 57%
Barometer: 1018.3 hPa
Clouds: Clear
Visibility: 16 km
2018/07/20 00:53 KMSS 200053Z AUTO 22004KT 10SM CLR 22/13 A3007 RMK AO2 SLP181 T02170128
 
CWBS - Lac St Pierre (a, Quebec, Canada
Distance from station: NE 106km
Updated: 07/19/2018 20:00 EDT

 Wind from S
Wind: S 24 km/h
Temperature: 24°C
Dew Point: 15°C
Humidity: 57%
2018/07/20 00:00 CWBS 200000Z AUTO 19013KT 24/15 RMK AO1 PK WND 20017/2311 T02440148
KBTV - Burlington, Vermont, USA
Distance from station: SSE 121km
Updated: 07/19/2018 20:54 EDT
Few Clouds
Few Clouds
 Wind from calm
Wind: Calm
Temperature: 25°C
Dew Point: 11°C
Humidity: 42%
Barometer: 1017.9 hPa
Clouds: Few Clouds
Visibility: 16 km
Cloud details: Few Clouds 6096 m
2018/07/20 00:54 KBTV 200054Z 00000KT 10SM FEW200 25/11 A3006 RMK AO2 SLP179 T02500111
 
KSLK - Saranac Lake, New York, USA
Distance from station: SSW 121km
Updated: 07/19/2018 20:51 EDT
Clear
Clear
 Wind from calm
Wind: Calm
Temperature: 17°C
Dew Point: 12°C
Humidity: 73%
Barometer: 1019.6 hPa
Clouds: Clear
Visibility: 16 km
2018/07/20 00:51 KSLK 200051Z AUTO 00000KT 10SM CLR 17/12 A3011 RMK AO2 SLP194 T01670122
CWNQ - Nicolet (autob), Quebec, Canada
Distance from station: NE 123km
Updated: 07/19/2018 20:00 EDT

 Wind from S
Wind: S 7 km/h
Temperature: 23°C
Dew Point: 13°C
Humidity: 53%
2018/07/20 00:00 CWNQ 200000Z AUTO 19004KT 23/13 RMK AO1 SLP160 T02290129 56001
 
KMWN - Mount Washington, New Hampshire, USA
Distance from station: SE 237km
Updated: 07/19/2018 20:50 EDT
Few Clouds
Few Clouds
 Wind from WNW
Wind: WNW 28 km/h
Temperature: 9°C
Wind Chill: 6°C
Dew Point: 6°C
Humidity: 82%
Clouds: Few Clouds
Visibility: 160 km
Cloud details: Few Clouds 5486 m
Few Clouds 6096 m
2018/07/20 00:50 KMWN 200050Z 29015KT 100SM FEW180 FEW200 09/06 RMK
CYVR - Vancouver Intl A, British Columbia, Canada
Distance from station: NW 3676km
Updated: 07/19/2018 20:00 EDT
Mostly cloudy
Mostly cloudy
 Wind from SE
Wind: SE 15 km/h
Temperature: 22°C
Dew Point: 12°C
Humidity: 53%
Barometer: 1020.3 hPa
Clouds: Mostly cloudy
Visibility: 48 km
Cloud details: Few Clouds 975 m
Mostly cloudy 1128 m
Mostly cloudy 2438 m
2018/07/20 00:00 CYVR 200000Z 14008KT 110V200 30SM FEW032 BKN037 BKN080 22/12 A3013 RMK CU2CU3AC1 AC TR SLP203 DENSITY ALT 600FT